createdAt,value
2023-05-01T00:01:15.692Z,19.09
2023-05-01T00:07:01.384Z,19.04
2023-05-01T00:12:46.055Z,18.98
2023-05-01T00:18:30.689Z,18.96
2023-05-01T00:24:17.721Z,18.88
2023-05-01T00:30:02.435Z,18.83
2023-05-01T00:35:47.760Z,18.78
2023-05-01T00:41:32.725Z,18.73
2023-05-01T00:47:17.772Z,18.72
2023-05-01T00:53:03.048Z,18.67
2023-05-01T00:58:50.409Z,18.62
2023-05-01T01:04:35.199Z,18.59
2023-05-01T01:10:25.129Z,18.58
2023-05-01T01:16:15.946Z,18.56
2023-05-01T01:22:07.024Z,18.55
2023-05-01T01:28:01.070Z,18.49
2023-05-01T01:33:55.044Z,18.46
2023-05-01T01:39:45.835Z,18.45
2023-05-01T01:45:34.528Z,18.41
2023-05-01T01:51:20.984Z,18.38
2023-05-01T01:57:07.298Z,18.36
2023-05-01T02:02:52.464Z,18.32
2023-05-01T02:08:38.276Z,18.31
2023-05-01T02:14:24.124Z,18.27
2023-05-01T02:20:10.402Z,18.25
2023-05-01T02:25:56.441Z,18.26
2023-05-01T02:31:41.306Z,18.2
2023-05-01T02:37:26.416Z,18.18
2023-05-01T02:43:12.367Z,18.17
2023-05-01T02:48:57.402Z,18.17
2023-05-01T02:54:42.314Z,18.14
2023-05-01T03:00:27.183Z,18.14
2023-05-01T03:06:12.732Z,18.08
2023-05-01T03:11:57.600Z,18.06
2023-05-01T03:17:42.465Z,18.04
2023-05-01T03:23:27.582Z,17.99
2023-05-01T03:29:12.157Z,17.99
2023-05-01T03:34:57.016Z,17.95
2023-05-01T03:40:41.706Z,17.92
2023-05-01T03:46:26.496Z,17.92
2023-05-01T03:52:11.526Z,17.9
2023-05-01T03:57:57.268Z,17.86
2023-05-01T04:03:41.964Z,17.84
2023-05-01T04:09:27.182Z,17.82
2023-05-01T04:15:13.688Z,17.81
2023-05-01T04:20:59.926Z,17.79
2023-05-01T04:26:44.608Z,17.78
2023-05-01T04:32:30.145Z,17.75
2023-05-01T04:38:14.902Z,17.77
2023-05-01T04:43:59.542Z,17.78
2023-05-01T04:49:44.312Z,17.77
2023-05-01T04:55:30.960Z,17.81
2023-05-01T05:01:15.760Z,17.82
2023-05-01T05:07:00.720Z,17.82
2023-05-01T05:12:45.381Z,17.86
2023-05-01T05:18:30.249Z,17.91
2023-05-01T05:24:15.066Z,17.94
2023-05-01T05:29:59.738Z,18
2023-05-01T05:35:44.596Z,18.06
2023-05-01T05:41:29.265Z,18.16
2023-05-01T05:47:14.077Z,18.27
2023-05-01T05:52:58.889Z,18.37
2023-05-01T05:58:44.431Z,18.49
2023-05-01T06:04:29.144Z,18.62
2023-05-01T06:10:14.408Z,18.72
2023-05-01T06:16:00.564Z,18.91
2023-05-01T06:21:45.541Z,19.03
2023-05-01T06:27:30.217Z,19.12
2023-05-01T06:33:14.970Z,19.22
2023-05-01T06:38:59.731Z,19.35
2023-05-01T06:44:45.314Z,19.58
2023-05-01T06:50:29.950Z,19.71
2023-05-01T06:56:14.670Z,19.87
2023-05-01T07:02:01.291Z,19.99
2023-05-01T07:07:54.211Z,20.14
2023-05-01T07:13:44.320Z,20.31
2023-05-01T07:19:28.845Z,20.39
2023-05-01T07:25:13.537Z,20.48
2023-05-01T07:30:58.412Z,20.53
2023-05-01T07:36:43.418Z,20.6
2023-05-01T07:42:28.102Z,20.73
2023-05-01T07:48:12.947Z,20.78
2023-05-01T07:53:58.220Z,20.8
2023-05-01T07:59:43.724Z,20.86
2023-05-01T08:05:28.470Z,20.92
2023-05-01T08:11:13.285Z,21.03
2023-05-01T08:16:58.177Z,21.22
2023-05-01T08:22:42.836Z,21.37
2023-05-01T08:28:27.566Z,21.42
2023-05-01T08:34:12.619Z,21.43
2023-05-01T08:39:57.330Z,21.38
2023-05-01T08:45:42.793Z,21.44
2023-05-01T08:51:30.040Z,21.42
2023-05-01T08:57:15.458Z,21.42
2023-05-01T09:03:01.300Z,21.81
2023-05-01T09:08:46.929Z,22.18
2023-05-01T09:14:31.822Z,22.44
2023-05-01T09:20:17.676Z,22.69
2023-05-01T09:26:04.430Z,22.97
2023-05-01T09:31:49.662Z,23.32
2023-05-01T09:37:35.012Z,23.5
2023-05-01T09:43:27.936Z,23.65
2023-05-01T09:49:12.698Z,23.75
2023-05-01T09:55:09.467Z,23.62
2023-05-01T10:00:54.221Z,23.65
2023-05-01T10:06:39.712Z,23.61
2023-05-01T10:12:28.306Z,23.48
2023-05-01T10:18:14.212Z,23.43
2023-05-01T10:24:00.348Z,23.4
2023-05-01T10:29:46.674Z,23.13
2023-05-01T10:35:34.174Z,22.71
2023-05-01T10:41:23.626Z,22.48
2023-05-01T10:47:19.287Z,22.44
2023-05-01T10:53:24.596Z,22.44
2023-05-01T10:59:09.383Z,22.48
2023-05-01T11:04:54.325Z,22.57
2023-05-01T11:10:40.026Z,22.71
2023-05-01T11:16:35.770Z,22.93
2023-05-01T11:22:21.509Z,23.29
2023-05-01T11:28:06.470Z,23.76
2023-05-01T11:33:51.626Z,24.22
2023-05-01T11:39:36.267Z,24.34
2023-05-01T11:45:20.995Z,24.71
2023-05-01T11:51:10.649Z,24.93
2023-05-01T11:57:01.293Z,24.95
2023-05-01T12:02:51.048Z,24.94
2023-05-01T12:08:36.868Z,24.93
2023-05-01T12:14:21.571Z,25.05
2023-05-01T12:20:07.512Z,25.21
2023-05-01T12:25:52.317Z,25.25
2023-05-01T12:31:37.467Z,25.28
2023-05-01T12:37:22.317Z,25.26
2023-05-01T12:43:07.041Z,25.55
2023-05-01T12:48:53.718Z,25.75
2023-05-01T12:54:39.531Z,25.72
2023-05-01T13:00:24.559Z,25.6
2023-05-01T13:06:09.331Z,26.07
2023-05-01T13:12:00.682Z,26.14
2023-05-01T13:17:45.569Z,26.68
2023-05-01T13:23:30.502Z,26.87
2023-05-01T13:29:17.172Z,27.4
2023-05-01T13:35:01.967Z,27.66
2023-05-01T13:40:46.589Z,27.79
2023-05-01T13:46:31.449Z,28.31
2023-05-01T13:52:18.962Z,28.43
2023-05-01T13:58:04.526Z,28.28
2023-05-01T14:03:49.383Z,28.33
2023-05-01T14:09:35.436Z,28.13
2023-05-01T14:15:20.126Z,27.77
2023-05-01T14:21:05.004Z,27.67
2023-05-01T14:26:49.714Z,28.32
2023-05-01T14:32:36.550Z,27.99
2023-05-01T14:38:22.361Z,28.45
2023-05-01T14:44:10.638Z,28.34
2023-05-01T14:49:55.483Z,28.51
2023-05-01T14:55:41.252Z,28.78
2023-05-01T15:01:26.045Z,28.94
2023-05-01T15:07:10.870Z,29.17
2023-05-01T15:12:55.714Z,29.44
2023-05-01T15:18:40.478Z,29.52
2023-05-01T15:24:25.079Z,29.17
2023-05-01T15:30:10.486Z,29.13
2023-05-01T15:35:55.160Z,29.16
2023-05-01T15:41:39.821Z,29.16
2023-05-01T15:47:24.574Z,29.16
2023-05-01T15:53:09.882Z,29.04
2023-05-01T15:58:54.871Z,28.85
2023-05-01T16:04:40.995Z,28.76
2023-05-01T16:10:25.592Z,28.75
2023-05-01T16:16:12.605Z,29.19
2023-05-01T16:21:57.810Z,28.64
2023-05-01T16:27:43.471Z,28.36
2023-05-01T16:33:28.489Z,28.04
2023-05-01T16:39:14.241Z,27.81
2023-05-01T16:45:00.299Z,27.69
2023-05-01T16:50:46.683Z,29.36
2023-05-01T16:56:31.722Z,30.29
2023-05-01T17:02:16.574Z,30.17
2023-05-01T17:08:01.466Z,29.08
2023-05-01T17:13:46.376Z,30.64
2023-05-01T17:19:32.103Z,30.77
2023-05-01T17:25:17.107Z,29.6
2023-05-01T17:31:01.701Z,29.19
2023-05-01T17:36:46.601Z,29.42
2023-05-01T17:42:31.300Z,29.44
2023-05-01T17:48:16.113Z,29.07
2023-05-01T17:54:01.148Z,28.49
2023-05-01T17:59:45.696Z,27.94
2023-05-01T18:05:31.423Z,27.4
2023-05-01T18:11:16.310Z,26.93
2023-05-01T18:17:01.395Z,26.54
2023-05-01T18:22:46.337Z,26.19
2023-05-01T18:28:32.941Z,25.89
2023-05-01T18:34:17.538Z,25.66
2023-05-01T18:40:02.440Z,25.36
2023-05-01T18:45:47.672Z,25.11
2023-05-01T18:51:33.892Z,24.87
2023-05-01T18:57:18.781Z,24.65
2023-05-01T19:03:04.951Z,24.41
2023-05-01T19:08:52.248Z,24.16
2023-05-01T19:14:37.024Z,23.93
2023-05-01T19:20:21.794Z,23.74
2023-05-01T19:26:06.525Z,23.52
2023-05-01T19:31:51.188Z,23.33
2023-05-01T19:37:37.108Z,23.15
2023-05-01T19:43:21.742Z,23.03
2023-05-01T19:49:06.483Z,22.85
2023-05-01T19:54:51.053Z,22.76
2023-05-01T20:00:35.757Z,22.66
2023-05-01T20:06:20.679Z,22.51
2023-05-01T20:12:05.604Z,22.39
2023-05-01T20:17:50.344Z,22.26
2023-05-01T20:23:35.205Z,22.15
2023-05-01T20:29:20.135Z,22
2023-05-01T20:35:05.196Z,21.88
2023-05-01T20:40:49.763Z,21.76
2023-05-01T20:46:34.631Z,21.65
2023-05-01T20:52:19.422Z,21.55
2023-05-01T20:58:04.012Z,21.43
2023-05-01T21:03:48.901Z,21.33
2023-05-01T21:09:36.613Z,21.21
2023-05-01T21:15:21.441Z,21.11
2023-05-01T21:21:06.168Z,20.98
2023-05-01T21:26:50.828Z,20.86
2023-05-01T21:32:38.813Z,20.79
2023-05-01T21:38:23.863Z,20.7
2023-05-01T21:44:10.152Z,20.58
2023-05-01T21:49:55.719Z,20.48
2023-05-01T21:55:44.647Z,20.36
2023-05-01T22:01:29.277Z,20.26
2023-05-01T22:07:14.739Z,20.16
2023-05-01T22:12:59.470Z,20.08
2023-05-01T22:18:44.097Z,20.01
2023-05-01T22:24:31.310Z,19.91
2023-05-01T22:30:16.151Z,19.83
2023-05-01T22:36:00.862Z,19.75
2023-05-01T22:41:48.958Z,19.7
2023-05-01T22:47:33.554Z,19.62
2023-05-01T22:53:18.642Z,19.54
2023-05-01T22:59:04.205Z,19.48
2023-05-01T23:04:49.110Z,19.42
2023-05-01T23:10:33.900Z,19.34
2023-05-01T23:16:18.769Z,19.28
2023-05-01T23:22:09.586Z,19.19
2023-05-01T23:27:55.356Z,19.12
2023-05-01T23:33:40.065Z,19.02
2023-05-01T23:39:24.719Z,18.94
2023-05-01T23:45:10.024Z,18.86
2023-05-01T23:50:54.885Z,18.8
2023-05-01T23:56:39.609Z,18.71
